Time;durP1;ratioP1;P1;durP2;ratioP2;P2;SDS_P1;SDS_P2;PMS_P1;PMS_P2;Temp;Humidity;BMP_temperature;BMP_pressure;BME280_temperature;BME280_humidity;BME280_pressure;Samples;Min_cycle;Max_cycle;Signal;HPM_P1;HPM_P2
2023/08/28 00:01:52;;;;;;;32.90;23.90;;;;;;;19.67;100.00;98291.85;271457;1278;22397;-87
2023/08/28 00:07:53;;;;;;;34.80;25.50;;;;;;;19.72;100.00;98297.23;271669;1278;22221;-88
2023/08/28 00:13:55;;;;;;;35.40;26.30;;;;;;;19.79;100.00;98307.61;271457;1278;22307;-85
2023/08/28 00:19:58;;;;;;;39.30;30.70;;;;;;;19.85;100.00;98312.48;271472;1278;23263;-85
2023/08/28 00:26:00;;;;;;;53.90;36.80;;;;;;;19.90;100.00;98323.52;270502;1276;22663;-85
2023/08/28 00:32:02;;;;;;;42.00;32.70;;;;;;;19.95;100.00;98333.19;270719;1278;22234;-86
2023/08/28 00:38:03;;;;;;;43.00;31.90;;;;;;;19.99;100.00;98336.07;270005;1278;23865;-85
2023/08/28 00:44:05;;;;;;;51.70;34.10;;;;;;;20.00;100.00;98345.31;270228;1278;22414;-86
2023/08/28 00:50:09;;;;;;;51.00;36.30;;;;;;;20.01;100.00;98353.75;270955;1278;22566;-86
2023/08/28 00:56:11;;;;;;;51.60;37.60;;;;;;;20.03;100.00;98364.48;269806;1274;22263;-86
2023/08/28 01:02:13;;;;;;;55.20;36.30;;;;;;;20.03;100.00;98371.30;269627;1278;23066;-85
2023/08/28 01:08:29;;;;;;;61.70;39.60;;;;;;;20.01;100.00;98388.59;269508;1278;22573;-86
2023/08/28 01:14:33;;;;;;;54.60;36.30;;;;;;;20.01;100.00;98404.80;270003;1278;22560;-86
2023/08/28 01:20:36;;;;;;;64.30;36.90;;;;;;;20.02;100.00;98416.60;270224;1278;22541;-86
2023/08/28 01:26:38;;;;;;;56.00;33.30;;;;;;;20.01;100.00;98424.86;270935;1278;23485;-85
2023/08/28 01:32:42;;;;;;;52.70;33.90;;;;;;;19.97;100.00;98419.38;271756;1278;22499;-86
2023/08/28 01:38:52;;;;;;;52.70;31.90;;;;;;;19.93;100.00;98411.50;271420;1278;22266;-85
2023/08/28 01:44:55;;;;;;;38.70;27.00;;;;;;;19.94;100.00;98428.39;271692;1276;22231;-85
2023/08/28 01:50:56;;;;;;;38.10;24.20;;;;;;;19.92;100.00;98439.83;271487;1278;22275;-85
2023/08/28 01:56:58;;;;;;;27.00;17.60;;;;;;;19.85;100.00;98444.27;271719;1278;22327;-84
2023/08/28 02:03:01;;;;;;;18.00;12.70;;;;;;;19.77;100.00;98446.91;271487;1278;22270;-85
2023/08/28 02:09:03;;;;;;;15.20;8.70;;;;;;;19.71;100.00;98451.11;271654;1278;22480;-85
2023/08/28 02:15:05;;;;;;;11.30;6.30;;;;;;;19.63;100.00;98449.70;271275;1278;23363;-89
2023/08/28 02:21:07;;;;;;;8.10;5.90;;;;;;;19.54;100.00;98453.65;270457;1272;22567;-83
2023/08/28 02:27:09;;;;;;;4.80;3.90;;;;;;;19.39;100.00;98458.74;271755;1278;22261;-85
2023/08/28 02:33:11;;;;;;;7.10;4.30;;;;;;;19.22;100.00;98465.09;271571;1278;22297;-85
2023/08/28 02:39:13;;;;;;;5.70;3.80;;;;;;;19.10;100.00;98480.59;270991;1278;23639;-87
2023/08/28 02:45:15;;;;;;;11.90;6.20;;;;;;;19.01;100.00;98480.48;271073;1278;22208;-86
2023/08/28 02:51:19;;;;;;;14.60;7.00;;;;;;;18.91;100.00;98487.52;271019;1278;22289;-86
2023/08/28 02:57:22;;;;;;;9.30;5.90;;;;;;;18.83;100.00;98484.67;270977;1278;22163;-86
2023/08/28 03:03:24;;;;;;;12.10;7.00;;;;;;;18.77;100.00;98497.38;270809;1278;22471;-86
2023/08/28 03:09:31;;;;;;;11.70;6.80;;;;;;;18.70;100.00;98498.52;270850;1278;22410;-85
2023/08/28 03:15:42;;;;;;;14.80;7.40;;;;;;;18.63;100.00;98503.78;270108;1278;22513;-89
2023/08/28 03:21:52;;;;;;;13.50;6.90;;;;;;;18.59;100.00;98520.31;271171;1278;22455;-89
2023/08/28 03:27:54;;;;;;;12.20;7.30;;;;;;;18.59;100.00;98516.72;271378;1278;22212;-86
2023/08/28 03:34:00;;;;;;;10.60;6.60;;;;;;;18.64;100.00;98527.46;271763;1278;22358;-85
2023/08/28 03:40:03;;;;;;;15.60;7.50;;;;;;;18.65;100.00;98528.70;271616;1278;22385;-88
2023/08/28 03:46:05;;;;;;;10.60;6.90;;;;;;;18.63;100.00;98542.35;271580;1278;23145;-88
2023/08/28 03:52:07;;;;;;;9.80;5.60;;;;;;;18.65;100.00;98540.87;271508;1278;22548;-86
2023/08/28 03:58:11;;;;;;;9.40;5.30;;;;;;;18.64;100.00;98542.33;270376;1278;22541;-85
2023/08/28 04:04:14;;;;;;;8.40;3.70;;;;;;;18.63;100.00;98536.34;270647;1278;22652;-85
2023/08/28 04:10:21;;;;;;;7.50;4.10;;;;;;;18.63;100.00;98556.40;270933;1278;22381;-86
2023/08/28 04:16:24;;;;;;;8.80;3.20;;;;;;;18.62;100.00;98569.02;270904;1278;22337;-85
2023/08/28 04:22:26;;;;;;;4.60;3.30;;;;;;;18.63;100.00;98547.77;271232;1278;22367;-85
2023/08/28 04:28:29;;;;;;;6.50;2.40;;;;;;;18.60;100.00;98543.40;271455;1278;22665;-86
2023/08/28 04:34:31;;;;;;;4.10;2.30;;;;;;;18.60;100.00;98538.96;271254;1278;22357;-85
2023/08/28 04:40:33;;;;;;;3.50;1.80;;;;;;;18.59;100.00;98559.27;271595;1278;22197;-85
2023/08/28 04:46:38;;;;;;;3.20;1.50;;;;;;;18.59;100.00;98562.35;271706;1278;22239;-84
2023/08/28 04:52:40;;;;;;;6.70;1.60;;;;;;;18.55;100.00;98549.55;270465;1278;22573;-85
2023/08/28 05:14:29;;;;;;;2.70;2.10;;;;;;;18.29;100.00;98511.85;270940;1278;22484;-84
2023/08/28 05:20:31;;;;;;;4.00;2.10;;;;;;;18.26;100.00;98533.39;270245;1278;22443;-84
2023/08/28 05:50:13;;;;;;;6.80;2.80;;;;;;;18.46;100.00;98518.67;271871;1278;22233;-85
2023/08/28 05:56:14;;;;;;;8.30;3.10;;;;;;;18.53;100.00;98527.13;270525;1278;23717;-84
2023/08/28 06:02:17;;;;;;;3.50;2.60;;;;;;;18.57;100.00;98526.63;268858;1278;22414;-84
2023/08/28 06:08:19;;;;;;;4.10;2.70;;;;;;;18.57;100.00;98529.25;269310;1278;22562;-86
2023/08/28 06:14:22;;;;;;;7.30;2.90;;;;;;;18.58;100.00;98528.57;268275;1278;22530;-84
2023/08/28 07:00:45;;;;;;;5.40;2.70;;;;;;;18.91;100.00;98501.16;270251;1278;23815;-85
2023/08/28 07:06:46;;;;;;;5.20;1.90;;;;;;;18.92;100.00;98498.82;269739;1278;23476;-85
2023/08/28 07:12:48;;;;;;;2.70;1.90;;;;;;;18.95;100.00;98485.42;271523;1278;23208;-85
2023/08/28 07:27:17;;;;;;;2.50;1.80;;;;;;;19.05;100.00;98500.63;270406;1286;23436;-85
2023/08/28 07:57:03;;;;;;;5.30;2.00;;;;;;;19.23;100.00;98509.43;271300;1278;22343;-85
2023/08/28 08:03:06;;;;;;;3.70;2.10;;;;;;;19.20;100.00;98509.12;270857;1278;22693;-87
2023/08/28 08:24:54;;;;;;;4.50;1.90;;;;;;;19.07;100.00;98503.35;270648;1278;23419;-85
2023/08/28 08:30:56;;;;;;;2.20;1.40;;;;;;;18.99;100.00;98491.56;271584;1278;23291;-86
2023/08/28 08:37:03;;;;;;;2.80;1.20;;;;;;;18.96;100.00;98488.31;269983;1278;22575;-85
2023/08/28 08:43:05;;;;;;;4.20;1.30;;;;;;;18.98;100.00;98477.15;270277;1278;22549;-84
2023/08/28 08:49:11;;;;;;;7.70;2.20;;;;;;;18.99;100.00;98475.09;271109;1280;22311;-85
2023/08/28 08:55:29;;;;;;;3.10;1.80;;;;;;;18.96;100.00;98478.02;271329;1278;22400;-88
2023/08/28 09:01:31;;;;;;;4.20;1.40;;;;;;;18.91;100.00;98478.50;271507;1278;22335;-86
2023/08/28 09:07:33;;;;;;;1.90;1.20;;;;;;;18.84;100.00;98478.94;271654;1278;22332;-85
2023/08/28 09:13:35;;;;;;;4.30;1.80;;;;;;;18.79;100.00;98476.31;271574;1278;22300;-85
2023/08/28 09:19:37;;;;;;;2.10;1.50;;;;;;;18.75;100.00;98479.03;271779;1278;22211;-86
2023/08/28 09:26:00;;;;;;;3.00;1.70;;;;;;;18.77;100.00;98470.92;271197;1280;22742;-86
2023/08/28 09:32:03;;;;;;;2.80;2.00;;;;;;;18.78;100.00;98474.94;271465;1280;22165;-86
2023/08/28 09:38:05;;;;;;;6.50;2.50;;;;;;;18.74;100.00;98474.40;271344;1271;22335;-85
2023/08/28 09:44:12;;;;;;;4.00;2.30;;;;;;;18.73;100.00;98475.77;271392;1278;22192;-86
2023/08/28 09:50:15;;;;;;;3.30;2.60;;;;;;;18.71;100.00;98472.75;270005;1279;22591;-85
2023/08/28 09:56:18;;;;;;;5.10;3.30;;;;;;;18.73;100.00;98472.59;271692;1278;22196;-85
2023/08/28 10:02:21;;;;;;;5.10;3.80;;;;;;;18.72;100.00;98469.77;271645;1279;22408;-86
2023/08/28 10:08:27;;;;;;;7.60;3.80;;;;;;;18.71;100.00;98463.73;271601;1276;22324;-86
2023/08/28 10:14:29;;;;;;;6.90;4.60;;;;;;;18.70;100.00;98460.64;271462;1279;22439;-86
2023/08/28 10:20:31;;;;;;;7.80;5.30;;;;;;;18.72;100.00;98455.77;271229;1280;22681;-87
2023/08/28 10:26:34;;;;;;;6.60;5.10;;;;;;;18.73;100.00;98449.77;271181;1278;22352;-86
2023/08/28 10:32:37;;;;;;;9.60;7.00;;;;;;;18.74;100.00;98449.05;271717;1278;22220;-86
2023/08/28 10:38:39;;;;;;;8.90;7.60;;;;;;;18.78;100.00;98442.83;271665;1264;22189;-85
2023/08/28 10:44:43;;;;;;;9.40;6.90;;;;;;;18.90;100.00;98433.52;270985;1278;22561;-88
2023/08/28 10:50:45;;;;;;;12.00;8.70;;;;;;;18.97;100.00;98434.02;269823;1278;22607;-86
2023/08/28 10:56:53;;;;;;;12.60;9.70;;;;;;;18.98;100.00;98428.09;269975;1278;23505;-87
2023/08/28 11:03:14;;;;;;;12.60;10.10;;;;;;;19.01;100.00;98422.29;271431;1278;22397;-88
2023/08/28 11:09:26;;;;;;;16.10;10.70;;;;;;;19.12;100.00;98415.92;270726;1278;23034;-87
2023/08/28 11:15:29;;;;;;;13.30;10.70;;;;;;;19.21;100.00;98417.22;271453;1278;22555;-86
2023/08/28 11:21:40;;;;;;;14.20;11.50;;;;;;;19.25;100.00;98419.23;270518;1278;22399;-86
2023/08/28 11:27:45;;;;;;;13.00;10.70;;;;;;;19.33;100.00;98420.25;270298;1278;23266;-85
2023/08/28 11:33:49;;;;;;;12.50;10.40;;;;;;;19.38;100.00;98414.30;269994;1278;23180;-86
2023/08/28 11:39:52;;;;;;;12.90;10.50;;;;;;;19.40;100.00;98403.95;270596;1278;23191;-87
2023/08/28 11:46:01;;;;;;;14.10;10.10;;;;;;;19.47;100.00;98395.82;269980;1278;22309;-85
2023/08/28 11:52:04;;;;;;;13.00;9.70;;;;;;;19.55;100.00;98401.61;270445;1277;22351;-86
2023/08/28 11:58:07;;;;;;;11.70;9.90;;;;;;;19.54;100.00;98397.20;269579;1278;22530;-85
2023/08/28 12:04:09;;;;;;;14.00;10.40;;;;;;;19.54;100.00;98395.83;269176;1273;22583;-83
2023/08/28 12:10:16;;;;;;;11.50;9.30;;;;;;;19.57;100.00;98393.52;269598;1278;23666;-84
2023/08/28 12:16:18;;;;;;;13.00;9.70;;;;;;;19.62;100.00;98389.66;269955;1278;22384;-83
2023/08/28 12:22:25;;;;;;;11.50;9.10;;;;;;;19.60;100.00;98385.48;271467;1278;23692;-86
2023/08/28 12:28:27;;;;;;;11.80;8.40;;;;;;;19.62;100.00;98389.38;270669;1278;22378;-84
2023/08/28 12:34:30;;;;;;;8.50;7.60;;;;;;;19.68;100.00;98391.79;269406;1278;22694;-85
2023/08/28 12:40:37;;;;;;;8.80;7.20;;;;;;;19.71;100.00;98385.09;269165;1278;22676;-84
2023/08/28 12:46:39;;;;;;;;;;;;;;;19.73;100.00;98367.95;269886;1279;22646;-84
2023/08/28 12:52:41;;;;;;;10.90;7.30;;;;;;;19.75;100.00;98349.95;270593;1278;22322;-86
2023/08/28 12:58:43;;;;;;;7.50;6.70;;;;;;;19.71;100.00;98348.04;270374;1279;25212;-84
2023/08/28 13:04:46;;;;;;;11.70;6.20;;;;;;;19.70;100.00;98340.53;269700;1279;22541;-85
2023/08/28 13:10:48;;;;;;;7.80;5.40;;;;;;;19.67;100.00;98341.27;269542;1278;22540;-83
2023/08/28 13:16:50;;;;;;;8.00;6.20;;;;;;;19.64;100.00;98342.89;269247;1278;22614;-85
2023/08/28 13:22:52;;;;;;;9.00;5.40;;;;;;;19.62;100.00;98335.50;270814;1278;22231;-86
2023/08/28 13:28:55;;;;;;;6.70;5.50;;;;;;;19.65;100.00;98328.80;271743;1278;22448;-84
2023/08/28 13:34:57;;;;;;;5.90;4.50;;;;;;;19.72;100.00;98323.98;270925;1278;22383;-88
2023/08/28 13:41:00;;;;;;;9.00;5.40;;;;;;;19.80;100.00;98321.94;271403;1278;22419;-86
2023/08/28 13:47:03;;;;;;;6.30;5.00;;;;;;;19.83;100.00;98314.52;271420;1278;22424;-87
2023/08/28 13:53:05;;;;;;;10.20;6.10;;;;;;;19.85;100.00;98314.45;269919;1267;22196;-86
2023/08/28 13:59:07;;;;;;;7.40;5.00;;;;;;;19.87;100.00;98318.50;269066;1278;23835;-86
2023/08/28 14:05:13;;;;;;;7.30;5.70;;;;;;;19.83;100.00;98320.14;269041;1276;23759;-85
2023/08/28 14:11:15;;;;;;;9.20;5.90;;;;;;;19.77;100.00;98310.62;271698;1278;22422;-89
2023/08/28 14:17:20;;;;;;;9.10;5.90;;;;;;;19.68;100.00;98307.69;270985;1269;22277;-85
2023/08/28 14:23:26;;;;;;;7.40;4.40;;;;;;;19.58;100.00;98301.28;271633;1274;22214;-86
2023/08/28 14:29:29;;;;;;;7.60;4.90;;;;;;;19.50;100.00;98294.37;271264;1278;22219;-85
2023/08/28 14:35:31;;;;;;;7.70;4.30;;;;;;;19.42;100.00;98286.66;271503;1278;22207;-85
2023/08/28 14:41:33;;;;;;;5.50;4.90;;;;;;;19.38;100.00;98282.27;271781;1275;22196;-86
2023/08/28 14:47:35;;;;;;;7.50;6.00;;;;;;;19.33;100.00;98279.98;271590;1278;22367;-86
2023/08/28 14:54:00;;;;;;;;;;;;;;;;;;;;;
2023/08/28 15:11:32;;;;;;;11.40;8.50;;;;;;;19.40;100.00;98265.23;261433;1298;6984173;-86
2023/08/28 15:17:58;;;;;;;7.50;6.80;;;;;;;19.33;100.00;98263.89;270886;1280;22190;-86
2023/08/28 15:24:27;;;;;;;7.90;5.50;;;;;;;19.22;100.00;98250.32;271012;1282;22480;-86
2023/08/28 15:31:15;;;;;;;6.30;5.20;;;;;;;19.12;100.00;98247.50;270693;1282;22478;-86
2023/08/28 15:37:44;;;;;;;7.10;6.40;;;;;;;19.08;100.00;98242.01;270626;1283;22494;-87
2023/08/28 15:44:07;;;;;;;6.50;5.30;;;;;;;19.06;100.00;98234.73;272045;1275;22400;-85
2023/08/28 15:50:24;;;;;;;9.60;7.70;;;;;;;19.01;100.00;98225.15;271568;1275;22442;-87
2023/08/28 15:56:29;;;;;;;6.80;5.90;;;;;;;18.96;100.00;98222.14;271976;1275;22397;-86
2023/08/28 16:03:00;;;;;;;9.40;7.80;;;;;;;18.94;100.00;98211.29;271878;1275;22239;-85
2023/08/28 16:09:41;;;;;;;10.30;8.10;;;;;;;18.91;100.00;98201.34;271976;1275;22321;-89
2023/08/28 16:16:40;;;;;;;10.90;9.80;;;;;;;18.89;100.00;98202.98;271920;1273;23095;-88
2023/08/28 16:23:15;;;;;;;10.90;9.80;;;;;;;18.87;100.00;98196.90;272254;1273;22336;-85
2023/08/28 16:29:18;;;;;;;11.90;10.70;;;;;;;18.80;100.00;98186.82;272382;1273;22448;-87
2023/08/28 16:35:19;;;;;;;10.40;9.40;;;;;;;18.74;100.00;98181.41;272284;1273;22314;-86
2023/08/28 16:41:21;;;;;;;10.80;9.40;;;;;;;18.74;100.00;98178.38;270921;1273;22420;-85
2023/08/28 16:47:23;;;;;;;12.00;10.00;;;;;;;18.75;100.00;98185.72;263863;1273;10002927;-86
2023/08/28 16:53:26;;;;;;;11.00;9.80;;;;;;;18.74;100.00;98182.64;272419;1273;22401;-86
2023/08/28 16:59:30;;;;;;;13.60;12.20;;;;;;;18.75;100.00;98174.39;272320;1262;24156;-86
2023/08/28 17:05:32;;;;;;;15.40;13.00;;;;;;;18.77;100.00;98174.02;272458;1273;22412;-86
2023/08/28 17:11:38;;;;;;;17.60;13.50;;;;;;;18.79;100.00;98169.41;272126;1273;22987;-88
2023/08/28 17:17:40;;;;;;;17.70;14.00;;;;;;;18.80;100.00;98172.61;271990;1273;22371;-86
2023/08/28 17:23:42;;;;;;;20.00;14.10;;;;;;;18.78;100.00;98166.84;272523;1273;22264;-86
2023/08/28 17:29:45;;;;;;;23.00;14.70;;;;;;;18.77;100.00;98164.52;272579;1266;22658;-85
2023/08/28 18:07:28;;;;;;;20.30;17.10;;;;;;;18.74;100.00;98179.87;272524;1273;22226;-85
2023/08/28 18:13:30;;;;;;;22.80;18.70;;;;;;;18.77;100.00;98177.27;271361;1273;22447;-85
2023/08/28 18:19:32;;;;;;;23.50;19.20;;;;;;;18.77;100.00;98173.06;271041;1273;22539;-86
2023/08/28 18:25:36;;;;;;;22.30;19.70;;;;;;;18.77;100.00;98173.94;271200;1273;23408;-85
2023/08/28 18:31:39;;;;;;;20.00;17.50;;;;;;;18.75;100.00;98170.82;272095;1273;23030;-85
2023/08/28 18:37:41;;;;;;;21.70;17.70;;;;;;;18.75;100.00;98165.98;271687;1273;22296;-85
2023/08/28 18:43:43;;;;;;;17.00;15.20;;;;;;;18.76;100.00;98161.46;272526;1273;22545;-85
2023/08/28 18:49:45;;;;;;;14.90;13.30;;;;;;;18.76;100.00;98157.80;272534;1273;23369;-89
2023/08/28 18:55:54;;;;;;;18.00;13.90;;;;;;;18.74;100.00;98147.55;272524;1273;22439;-85
2023/08/28 19:01:56;;;;;;;16.00;13.30;;;;;;;18.73;100.00;98139.25;272377;1272;22827;-85
2023/08/28 19:07:58;;;;;;;15.60;12.60;;;;;;;18.74;100.00;98135.85;272141;1273;22190;-86
2023/08/28 19:14:00;;;;;;;14.50;12.80;;;;;;;18.73;100.00;98132.95;272470;1273;22490;-85
2023/08/28 19:20:04;;;;;;;15.50;13.10;;;;;;;18.74;100.00;98127.27;272334;1273;22583;-87
2023/08/28 19:26:09;;;;;;;14.80;12.50;;;;;;;18.75;100.00;98111.33;272532;1273;22207;-90
2023/08/28 19:32:14;;;;;;;17.00;13.30;;;;;;;18.77;100.00;98098.23;272285;1273;22567;-85
2023/08/28 19:38:17;;;;;;;16.10;13.20;;;;;;;18.76;100.00;98083.75;272025;1259;22329;-85
2023/08/28 19:44:19;;;;;;;17.40;13.60;;;;;;;18.76;100.00;98068.23;272191;1273;22579;-85
2023/08/28 19:50:21;;;;;;;19.80;15.30;;;;;;;18.77;100.00;98045.30;271922;1273;23430;-86
2023/08/28 19:56:24;;;;;;;17.30;14.30;;;;;;;18.77;100.00;98040.13;272610;1269;22301;-85
2023/08/28 20:02:26;;;;;;;20.60;14.70;;;;;;;18.79;100.00;98040.33;271753;1272;22553;-87
2023/08/28 20:08:28;;;;;;;22.00;15.40;;;;;;;18.81;100.00;98041.20;271338;1272;22391;-85
2023/08/28 20:14:33;;;;;;;22.70;16.20;;;;;;;18.82;100.00;98039.55;272276;1272;22858;-85
2023/08/28 20:20:35;;;;;;;18.80;15.30;;;;;;;18.84;100.00;98031.02;272218;1261;23997;-85
2023/08/28 20:26:37;;;;;;;21.90;16.50;;;;;;;18.85;100.00;98026.84;271545;1272;22540;-86
2023/08/28 20:32:40;;;;;;;21.30;15.20;;;;;;;18.83;100.00;98006.40;271576;1272;22559;-84
2023/08/28 20:38:42;;;;;;;18.80;14.90;;;;;;;18.81;100.00;97989.14;272063;1272;22431;-86
2023/08/28 20:44:44;;;;;;;20.40;15.10;;;;;;;18.80;100.00;97985.92;270996;1272;22248;-87
2023/08/28 20:50:46;;;;;;;21.30;15.50;;;;;;;18.80;100.00;97970.40;270446;1272;22647;-85
2023/08/28 20:56:48;;;;;;;19.10;15.80;;;;;;;18.82;100.00;97958.59;270629;1272;23000;-87
2023/08/28 21:02:59;;;;;;;22.60;16.50;;;;;;;18.84;100.00;97939.19;271336;1270;23301;-86
2023/08/28 21:09:01;;;;;;;23.60;18.40;;;;;;;18.85;100.00;97928.77;272853;1272;22432;-86
2023/08/28 21:15:03;;;;;;;25.30;17.50;;;;;;;18.86;100.00;97920.17;271565;1272;22382;-91
2023/08/28 21:21:05;;;;;;;24.50;16.40;;;;;;;18.88;100.00;97909.10;271507;1272;22530;-86
2023/08/28 21:27:07;;;;;;;20.30;15.20;;;;;;;18.89;100.00;97916.31;271618;1269;22578;-87
2023/08/28 21:33:09;;;;;;;25.80;16.50;;;;;;;18.91;100.00;97923.64;271258;1269;22569;-88
2023/08/28 21:39:12;;;;;;;21.90;14.60;;;;;;;18.91;100.00;97924.09;271659;1269;23634;-87
2023/08/28 21:45:15;;;;;;;18.50;14.00;;;;;;;18.90;100.00;97915.68;273265;1269;22312;-86
2023/08/28 21:51:17;;;;;;;19.20;14.00;;;;;;;18.89;100.00;97910.81;272113;1269;22524;-87
2023/08/28 21:57:37;;;;;;;17.30;13.40;;;;;;;18.90;100.00;97910.54;271373;1269;22345;-86
2023/08/28 22:03:58;;;;;;;19.80;14.30;;;;;;;18.91;100.00;97904.06;271448;1266;22539;-87
2023/08/28 22:10:20;;;;;;;24.10;14.70;;;;;;;18.93;100.00;97897.56;270740;1269;25399;-85
2023/08/28 22:16:31;;;;;;;21.70;14.20;;;;;;;18.96;100.00;97905.35;271294;1269;22562;-87
2023/08/28 22:22:33;;;;;;;21.40;13.90;;;;;;;18.98;100.00;97900.91;270781;1269;23079;-87
2023/08/28 22:28:35;;;;;;;21.20;13.30;;;;;;;18.99;100.00;97896.05;273087;1269;22422;-87
2023/08/28 22:34:37;;;;;;;19.30;14.00;;;;;;;18.95;100.00;97882.91;270344;1256;22326;-88
2023/08/28 22:40:39;;;;;;;20.20;13.80;;;;;;;18.94;100.00;97875.64;273454;1269;22342;-86
2023/08/28 22:46:40;;;;;;;19.50;13.70;;;;;;;18.94;100.00;97870.49;273338;1269;22224;-90
2023/08/28 22:52:42;;;;;;;24.40;15.00;;;;;;;18.96;100.00;97874.87;273168;1269;23591;-86
2023/08/28 22:58:44;;;;;;;20.80;13.00;;;;;;;18.99;100.00;97874.58;273525;1269;22215;-87
2023/08/28 23:04:46;;;;;;;21.40;14.10;;;;;;;19.02;100.00;97874.84;273434;1269;22302;-87
2023/08/28 23:10:48;;;;;;;26.00;14.90;;;;;;;19.03;100.00;97863.80;273542;1269;22336;-85
2023/08/28 23:16:51;;;;;;;18.40;13.50;;;;;;;19.03;100.00;97856.42;272882;1269;22314;-87
2023/08/28 23:22:53;;;;;;;17.80;12.70;;;;;;;19.05;100.00;97851.98;273547;1268;22198;-87
2023/08/28 23:28:54;;;;;;;18.10;13.20;;;;;;;19.06;100.00;97852.72;273477;1269;22337;-86
2023/08/28 23:34:56;;;;;;;21.00;13.00;;;;;;;19.07;100.00;97858.55;272138;1269;22375;-86
2023/08/28 23:40:58;;;;;;;16.00;11.40;;;;;;;19.10;100.00;97858.84;272905;1269;22557;-87
2023/08/28 23:47:00;;;;;;;18.00;12.20;;;;;;;19.10;100.00;97859.39;273279;1259;22966;-86
2023/08/28 23:53:02;;;;;;;21.90;12.80;;;;;;;19.09;100.00;97873.98;273508;1269;22317;-87
2023/08/28 23:59:04;;;;;;;16.40;11.90;;;;;;;19.05;100.00;97868.63;273407;1269;22318;-86
